sensor_id;sensor_type;location;lat;lon;timestamp;P1;durP1;ratioP1;P2;durP2;ratioP2
2998;SDS011;1509;51.964;7.628;2023-02-15T00:01:14;33.93;;;23.43;;
2998;SDS011;1509;51.964;7.628;2023-02-15T00:03:40;34.97;;;25.50;;
2998;SDS011;1509;51.964;7.628;2023-02-15T00:06:05;33.70;;;24.00;;
2998;SDS011;1509;51.964;7.628;2023-02-15T00:08:31;40.10;;;23.00;;
2998;SDS011;1509;51.964;7.628;2023-02-15T00:11:30;35.33;;;23.93;;
2998;SDS011;1509;51.964;7.628;2023-02-15T00:14:11;34.07;;;24.00;;
2998;SDS011;1509;51.964;7.628;2023-02-15T00:16:39;35.13;;;22.73;;
2998;SDS011;1509;51.964;7.628;2023-02-15T00:19:05;29.90;;;21.77;;
2998;SDS011;1509;51.964;7.628;2023-02-15T00:21:33;34.87;;;23.83;;
2998;SDS011;1509;51.964;7.628;2023-02-15T00:24:00;27.83;;;21.83;;
2998;SDS011;1509;51.964;7.628;2023-02-15T00:26:27;25.43;;;21.17;;
2998;SDS011;1509;51.964;7.628;2023-02-15T00:28:54;40.00;;;27.17;;
2998;SDS011;1509;51.964;7.628;2023-02-15T00:31:20;32.30;;;21.80;;
2998;SDS011;1509;51.964;7.628;2023-02-15T00:33:46;35.50;;;23.63;;
2998;SDS011;1509;51.964;7.628;2023-02-15T00:36:12;33.27;;;23.47;;
2998;SDS011;1509;51.964;7.628;2023-02-15T00:38:38;35.00;;;23.97;;
2998;SDS011;1509;51.964;7.628;2023-02-15T00:41:05;31.77;;;21.73;;
2998;SDS011;1509;51.964;7.628;2023-02-15T00:43:32;32.17;;;23.00;;
2998;SDS011;1509;51.964;7.628;2023-02-15T00:45:59;35.73;;;25.47;;
2998;SDS011;1509;51.964;7.628;2023-02-15T00:48:25;28.43;;;21.40;;
2998;SDS011;1509;51.964;7.628;2023-02-15T00:50:52;35.60;;;23.97;;
2998;SDS011;1509;51.964;7.628;2023-02-15T00:53:20;35.60;;;24.10;;
2998;SDS011;1509;51.964;7.628;2023-02-15T00:55:46;33.00;;;23.23;;
2998;SDS011;1509;51.964;7.628;2023-02-15T00:58:12;31.27;;;22.63;;
2998;SDS011;1509;51.964;7.628;2023-02-15T01:00:38;34.10;;;22.90;;
2998;SDS011;1509;51.964;7.628;2023-02-15T01:03:06;31.30;;;22.40;;
2998;SDS011;1509;51.964;7.628;2023-02-15T01:05:31;33.03;;;23.93;;
2998;SDS011;1509;51.964;7.628;2023-02-15T01:07:58;34.90;;;24.50;;
2998;SDS011;1509;51.964;7.628;2023-02-15T01:10:24;34.70;;;23.47;;
2998;SDS011;1509;51.964;7.628;2023-02-15T01:12:52;33.00;;;24.57;;
2998;SDS011;1509;51.964;7.628;2023-02-15T01:15:19;31.60;;;23.57;;
2998;SDS011;1509;51.964;7.628;2023-02-15T01:17:45;34.30;;;23.70;;
2998;SDS011;1509;51.964;7.628;2023-02-15T01:20:16;38.20;;;24.27;;
2998;SDS011;1509;51.964;7.628;2023-02-15T01:22:42;35.67;;;24.03;;
2998;SDS011;1509;51.964;7.628;2023-02-15T01:25:08;37.27;;;22.33;;
2998;SDS011;1509;51.964;7.628;2023-02-15T01:27:34;32.50;;;21.53;;
2998;SDS011;1509;51.964;7.628;2023-02-15T01:29:59;28.63;;;22.40;;
2998;SDS011;1509;51.964;7.628;2023-02-15T01:32:25;36.77;;;22.97;;
2998;SDS011;1509;51.964;7.628;2023-02-15T01:34:51;34.00;;;22.57;;
2998;SDS011;1509;51.964;7.628;2023-02-15T01:37:20;32.93;;;23.90;;
2998;SDS011;1509;51.964;7.628;2023-02-15T01:39:46;32.83;;;22.27;;
2998;SDS011;1509;51.964;7.628;2023-02-15T01:42:12;32.93;;;21.00;;
2998;SDS011;1509;51.964;7.628;2023-02-15T01:44:56;28.80;;;21.50;;
2998;SDS011;1509;51.964;7.628;2023-02-15T01:52:49;39.63;;;24.30;;
2998;SDS011;1509;51.964;7.628;2023-02-15T01:55:38;33.80;;;22.20;;
2998;SDS011;1509;51.964;7.628;2023-02-15T01:58:08;29.80;;;22.30;;
2998;SDS011;1509;51.964;7.628;2023-02-15T02:00:34;33.53;;;23.73;;
2998;SDS011;1509;51.964;7.628;2023-02-15T02:03:00;34.17;;;21.67;;
2998;SDS011;1509;51.964;7.628;2023-02-15T02:05:27;32.70;;;23.07;;
2998;SDS011;1509;51.964;7.628;2023-02-15T02:07:54;33.57;;;22.60;;
2998;SDS011;1509;51.964;7.628;2023-02-15T02:10:22;32.13;;;23.13;;
2998;SDS011;1509;51.964;7.628;2023-02-15T02:12:49;29.97;;;20.83;;
2998;SDS011;1509;51.964;7.628;2023-02-15T02:15:18;41.10;;;23.13;;
2998;SDS011;1509;51.964;7.628;2023-02-15T02:40:03;34.30;;;23.07;;
2998;SDS011;1509;51.964;7.628;2023-02-15T02:42:44;27.57;;;20.50;;
2998;SDS011;1509;51.964;7.628;2023-02-15T02:45:25;31.40;;;20.73;;
2998;SDS011;1509;51.964;7.628;2023-02-15T02:48:00;29.10;;;20.00;;
2998;SDS011;1509;51.964;7.628;2023-02-15T02:50:33;30.67;;;21.00;;
2998;SDS011;1509;51.964;7.628;2023-02-15T02:53:01;36.40;;;22.47;;
2998;SDS011;1509;51.964;7.628;2023-02-15T02:55:31;29.57;;;21.13;;
2998;SDS011;1509;51.964;7.628;2023-02-15T02:58:06;29.73;;;21.57;;
2998;SDS011;1509;51.964;7.628;2023-02-15T03:00:54;32.00;;;20.80;;
2998;SDS011;1509;51.964;7.628;2023-02-15T03:03:27;34.70;;;22.10;;
2998;SDS011;1509;51.964;7.628;2023-02-15T03:06:00;26.87;;;19.33;;
2998;SDS011;1509;51.964;7.628;2023-02-15T03:08:36;36.23;;;21.27;;
2998;SDS011;1509;51.964;7.628;2023-02-15T03:11:06;34.13;;;21.07;;
2998;SDS011;1509;51.964;7.628;2023-02-15T03:13:33;33.10;;;20.83;;
2998;SDS011;1509;51.964;7.628;2023-02-15T03:16:00;35.23;;;21.63;;
2998;SDS011;1509;51.964;7.628;2023-02-15T03:18:48;39.73;;;24.20;;
2998;SDS011;1509;51.964;7.628;2023-02-15T03:21:30;43.73;;;23.50;;
2998;SDS011;1509;51.964;7.628;2023-02-15T03:24:04;29.03;;;21.07;;
2998;SDS011;1509;51.964;7.628;2023-02-15T03:26:33;31.63;;;19.70;;
2998;SDS011;1509;51.964;7.628;2023-02-15T03:29:01;35.77;;;21.30;;
2998;SDS011;1509;51.964;7.628;2023-02-15T03:31:31;35.93;;;21.50;;
2998;SDS011;1509;51.964;7.628;2023-02-15T03:34:04;35.17;;;22.43;;
2998;SDS011;1509;51.964;7.628;2023-02-15T03:36:43;31.40;;;22.60;;
2998;SDS011;1509;51.964;7.628;2023-02-15T03:42:44;32.37;;;22.63;;
2998;SDS011;1509;51.964;7.628;2023-02-15T03:45:15;29.43;;;19.80;;
2998;SDS011;1509;51.964;7.628;2023-02-15T03:47:47;33.70;;;22.47;;
2998;SDS011;1509;51.964;7.628;2023-02-15T03:50:19;35.63;;;21.17;;
2998;SDS011;1509;51.964;7.628;2023-02-15T03:53:07;40.07;;;24.20;;
2998;SDS011;1509;51.964;7.628;2023-02-15T03:55:36;35.67;;;22.50;;
2998;SDS011;1509;51.964;7.628;2023-02-15T03:58:02;39.73;;;21.00;;
2998;SDS011;1509;51.964;7.628;2023-02-15T04:04:03;43.53;;;26.33;;
2998;SDS011;1509;51.964;7.628;2023-02-15T04:06:34;31.60;;;21.30;;
2998;SDS011;1509;51.964;7.628;2023-02-15T04:08:59;36.53;;;23.97;;
2998;SDS011;1509;51.964;7.628;2023-02-15T04:11:43;35.03;;;23.37;;
2998;SDS011;1509;51.964;7.628;2023-02-15T04:14:10;43.20;;;24.13;;
2998;SDS011;1509;51.964;7.628;2023-02-15T04:16:54;37.67;;;24.57;;
2998;SDS011;1509;51.964;7.628;2023-02-15T04:19:20;40.00;;;23.90;;
2998;SDS011;1509;51.964;7.628;2023-02-15T04:22:04;39.90;;;23.33;;
2998;SDS011;1509;51.964;7.628;2023-02-15T04:24:48;34.30;;;21.77;;
2998;SDS011;1509;51.964;7.628;2023-02-15T04:27:33;33.43;;;20.77;;
2998;SDS011;1509;51.964;7.628;2023-02-15T04:29:58;33.90;;;21.60;;
2998;SDS011;1509;51.964;7.628;2023-02-15T04:32:24;33.73;;;20.63;;
2998;SDS011;1509;51.964;7.628;2023-02-15T04:34:49;34.60;;;21.60;;
2998;SDS011;1509;51.964;7.628;2023-02-15T04:37:15;34.97;;;22.20;;
2998;SDS011;1509;51.964;7.628;2023-02-15T04:39:40;39.97;;;21.50;;
2998;SDS011;1509;51.964;7.628;2023-02-15T04:42:06;36.47;;;22.30;;
2998;SDS011;1509;51.964;7.628;2023-02-15T04:44:32;35.90;;;22.70;;
2998;SDS011;1509;51.964;7.628;2023-02-15T04:46:57;32.67;;;21.13;;
2998;SDS011;1509;51.964;7.628;2023-02-15T04:49:23;36.87;;;21.00;;
2998;SDS011;1509;51.964;7.628;2023-02-15T04:51:48;37.77;;;22.13;;
2998;SDS011;1509;51.964;7.628;2023-02-15T04:54:14;30.80;;;20.37;;
2998;SDS011;1509;51.964;7.628;2023-02-15T04:56:39;30.60;;;20.60;;
2998;SDS011;1509;51.964;7.628;2023-02-15T04:59:05;26.30;;;19.23;;
2998;SDS011;1509;51.964;7.628;2023-02-15T05:01:31;30.37;;;20.60;;
2998;SDS011;1509;51.964;7.628;2023-02-15T05:03:56;29.20;;;18.87;;
2998;SDS011;1509;51.964;7.628;2023-02-15T05:06:22;31.10;;;20.10;;
2998;SDS011;1509;51.964;7.628;2023-02-15T05:08:48;32.47;;;21.03;;
2998;SDS011;1509;51.964;7.628;2023-02-15T05:11:13;28.93;;;18.23;;
2998;SDS011;1509;51.964;7.628;2023-02-15T05:13:39;29.40;;;18.50;;
2998;SDS011;1509;51.964;7.628;2023-02-15T05:16:04;36.03;;;18.10;;
2998;SDS011;1509;51.964;7.628;2023-02-15T05:18:30;30.33;;;19.60;;
2998;SDS011;1509;51.964;7.628;2023-02-15T05:20:55;27.70;;;19.10;;
2998;SDS011;1509;51.964;7.628;2023-02-15T05:23:21;34.83;;;18.97;;
2998;SDS011;1509;51.964;7.628;2023-02-15T05:25:50;31.17;;;18.80;;
2998;SDS011;1509;51.964;7.628;2023-02-15T05:28:35;34.90;;;19.77;;
2998;SDS011;1509;51.964;7.628;2023-02-15T05:31:09;29.20;;;18.33;;
2998;SDS011;1509;51.964;7.628;2023-02-15T05:33:36;26.13;;;17.77;;
2998;SDS011;1509;51.964;7.628;2023-02-15T05:36:02;28.57;;;19.53;;
2998;SDS011;1509;51.964;7.628;2023-02-15T05:38:28;28.50;;;18.40;;
2998;SDS011;1509;51.964;7.628;2023-02-15T05:40:54;29.40;;;19.70;;
2998;SDS011;1509;51.964;7.628;2023-02-15T05:43:20;29.03;;;19.20;;
2998;SDS011;1509;51.964;7.628;2023-02-15T05:45:49;28.47;;;17.00;;
2998;SDS011;1509;51.964;7.628;2023-02-15T05:48:16;27.93;;;19.93;;
2998;SDS011;1509;51.964;7.628;2023-02-15T05:50:43;31.03;;;19.30;;
2998;SDS011;1509;51.964;7.628;2023-02-15T05:53:09;28.43;;;18.50;;
2998;SDS011;1509;51.964;7.628;2023-02-15T05:55:37;30.13;;;19.50;;
2998;SDS011;1509;51.964;7.628;2023-02-15T05:58:06;32.37;;;19.17;;
2998;SDS011;1509;51.964;7.628;2023-02-15T06:00:32;27.40;;;19.17;;
2998;SDS011;1509;51.964;7.628;2023-02-15T06:02:59;29.80;;;19.10;;
2998;SDS011;1509;51.964;7.628;2023-02-15T06:05:24;25.20;;;18.77;;
2998;SDS011;1509;51.964;7.628;2023-02-15T06:07:50;21.83;;;16.97;;
2998;SDS011;1509;51.964;7.628;2023-02-15T06:10:15;28.30;;;18.70;;
2998;SDS011;1509;51.964;7.628;2023-02-15T06:12:41;27.40;;;18.57;;
2998;SDS011;1509;51.964;7.628;2023-02-15T06:15:08;31.57;;;18.87;;
2998;SDS011;1509;51.964;7.628;2023-02-15T06:17:34;32.77;;;19.80;;
2998;SDS011;1509;51.964;7.628;2023-02-15T06:19:59;28.80;;;17.13;;
2998;SDS011;1509;51.964;7.628;2023-02-15T06:22:25;28.70;;;18.70;;
2998;SDS011;1509;51.964;7.628;2023-02-15T06:24:50;26.87;;;17.97;;
2998;SDS011;1509;51.964;7.628;2023-02-15T06:27:19;30.13;;;17.67;;
2998;SDS011;1509;51.964;7.628;2023-02-15T06:29:44;26.67;;;18.20;;
2998;SDS011;1509;51.964;7.628;2023-02-15T06:32:10;28.00;;;17.80;;
2998;SDS011;1509;51.964;7.628;2023-02-15T06:34:36;29.63;;;16.87;;
2998;SDS011;1509;51.964;7.628;2023-02-15T06:37:01;25.60;;;18.70;;
2998;SDS011;1509;51.964;7.628;2023-02-15T06:39:27;26.77;;;18.43;;
2998;SDS011;1509;51.964;7.628;2023-02-15T06:41:52;24.40;;;16.83;;
2998;SDS011;1509;51.964;7.628;2023-02-15T06:44:18;28.07;;;18.87;;
2998;SDS011;1509;51.964;7.628;2023-02-15T06:46:44;25.60;;;18.40;;
2998;SDS011;1509;51.964;7.628;2023-02-15T06:49:09;30.77;;;18.93;;
2998;SDS011;1509;51.964;7.628;2023-02-15T06:51:35;22.97;;;15.93;;
2998;SDS011;1509;51.964;7.628;2023-02-15T06:54:00;31.00;;;20.00;;
2998;SDS011;1509;51.964;7.628;2023-02-15T06:56:26;30.40;;;18.97;;
2998;SDS011;1509;51.964;7.628;2023-02-15T06:58:52;27.63;;;18.20;;
2998;SDS011;1509;51.964;7.628;2023-02-15T07:01:17;25.17;;;18.70;;
2998;SDS011;1509;51.964;7.628;2023-02-15T07:03:43;25.13;;;18.13;;
2998;SDS011;1509;51.964;7.628;2023-02-15T07:06:09;30.73;;;19.10;;
2998;SDS011;1509;51.964;7.628;2023-02-15T07:08:36;28.53;;;17.20;;
2998;SDS011;1509;51.964;7.628;2023-02-15T07:11:03;29.30;;;18.53;;
2998;SDS011;1509;51.964;7.628;2023-02-15T07:13:48;28.13;;;17.60;;
2998;SDS011;1509;51.964;7.628;2023-02-15T07:16:14;35.83;;;18.20;;
2998;SDS011;1509;51.964;7.628;2023-02-15T07:18:39;34.47;;;18.77;;
2998;SDS011;1509;51.964;7.628;2023-02-15T07:21:06;29.70;;;17.07;;
2998;SDS011;1509;51.964;7.628;2023-02-15T07:23:38;25.50;;;15.87;;
2998;SDS011;1509;51.964;7.628;2023-02-15T07:26:04;28.00;;;16.80;;
2998;SDS011;1509;51.964;7.628;2023-02-15T07:28:31;26.57;;;16.27;;
2998;SDS011;1509;51.964;7.628;2023-02-15T07:30:57;27.70;;;17.17;;
2998;SDS011;1509;51.964;7.628;2023-02-15T07:33:23;25.50;;;17.17;;
2998;SDS011;1509;51.964;7.628;2023-02-15T07:35:49;28.53;;;17.67;;
2998;SDS011;1509;51.964;7.628;2023-02-15T07:38:16;29.87;;;16.80;;
2998;SDS011;1509;51.964;7.628;2023-02-15T07:40:42;27.27;;;17.43;;
2998;SDS011;1509;51.964;7.628;2023-02-15T07:43:08;25.57;;;16.23;;
2998;SDS011;1509;51.964;7.628;2023-02-15T07:45:34;25.47;;;16.70;;
2998;SDS011;1509;51.964;7.628;2023-02-15T07:48:00;25.87;;;16.10;;
2998;SDS011;1509;51.964;7.628;2023-02-15T07:50:26;26.87;;;17.37;;
2998;SDS011;1509;51.964;7.628;2023-02-15T07:52:52;26.93;;;16.47;;
2998;SDS011;1509;51.964;7.628;2023-02-15T07:55:18;27.20;;;17.00;;
2998;SDS011;1509;51.964;7.628;2023-02-15T07:57:44;26.90;;;16.77;;
2998;SDS011;1509;51.964;7.628;2023-02-15T08:00:13;22.57;;;16.40;;
2998;SDS011;1509;51.964;7.628;2023-02-15T08:02:40;25.67;;;15.37;;
2998;SDS011;1509;51.964;7.628;2023-02-15T08:05:08;26.47;;;17.37;;
2998;SDS011;1509;51.964;7.628;2023-02-15T08:07:33;28.63;;;17.47;;
2998;SDS011;1509;51.964;7.628;2023-02-15T08:09:59;25.23;;;17.97;;
2998;SDS011;1509;51.964;7.628;2023-02-15T08:12:30;30.00;;;16.43;;
2998;SDS011;1509;51.964;7.628;2023-02-15T08:14:56;26.50;;;17.17;;
2998;SDS011;1509;51.964;7.628;2023-02-15T08:17:21;27.50;;;17.87;;
2998;SDS011;1509;51.964;7.628;2023-02-15T08:19:49;23.00;;;16.13;;
2998;SDS011;1509;51.964;7.628;2023-02-15T08:22:15;24.43;;;15.13;;
2998;SDS011;1509;51.964;7.628;2023-02-15T08:24:40;24.03;;;15.17;;
2998;SDS011;1509;51.964;7.628;2023-02-15T08:27:07;21.60;;;15.07;;
2998;SDS011;1509;51.964;7.628;2023-02-15T08:29:35;19.37;;;14.50;;
2998;SDS011;1509;51.964;7.628;2023-02-15T08:32:04;20.63;;;14.13;;
2998;SDS011;1509;51.964;7.628;2023-02-15T08:34:34;23.47;;;14.57;;
2998;SDS011;1509;51.964;7.628;2023-02-15T08:37:01;26.07;;;16.17;;
2998;SDS011;1509;51.964;7.628;2023-02-15T08:39:27;23.90;;;14.00;;
2998;SDS011;1509;51.964;7.628;2023-02-15T08:41:53;22.87;;;14.67;;
2998;SDS011;1509;51.964;7.628;2023-02-15T08:44:19;19.20;;;14.30;;
2998;SDS011;1509;51.964;7.628;2023-02-15T08:46:46;20.57;;;13.67;;
2998;SDS011;1509;51.964;7.628;2023-02-15T08:49:14;19.47;;;14.27;;
2998;SDS011;1509;51.964;7.628;2023-02-15T08:51:42;19.93;;;13.10;;
2998;SDS011;1509;51.964;7.628;2023-02-15T08:54:17;21.33;;;14.53;;
2998;SDS011;1509;51.964;7.628;2023-02-15T08:56:45;19.37;;;14.20;;
2998;SDS011;1509;51.964;7.628;2023-02-15T08:59:12;20.00;;;13.53;;
2998;SDS011;1509;51.964;7.628;2023-02-15T09:01:43;21.90;;;14.40;;
2998;SDS011;1509;51.964;7.628;2023-02-15T09:04:12;21.60;;;14.67;;
2998;SDS011;1509;51.964;7.628;2023-02-15T09:06:38;21.30;;;14.37;;
2998;SDS011;1509;51.964;7.628;2023-02-15T09:09:06;16.70;;;12.97;;
2998;SDS011;1509;51.964;7.628;2023-02-15T09:11:33;19.00;;;13.53;;
2998;SDS011;1509;51.964;7.628;2023-02-15T09:14:06;19.47;;;14.57;;
2998;SDS011;1509;51.964;7.628;2023-02-15T09:16:34;20.97;;;14.90;;
2998;SDS011;1509;51.964;7.628;2023-02-15T09:19:01;18.90;;;13.97;;
2998;SDS011;1509;51.964;7.628;2023-02-15T09:21:29;22.17;;;15.60;;
2998;SDS011;1509;51.964;7.628;2023-02-15T09:23:58;22.33;;;16.00;;
2998;SDS011;1509;51.964;7.628;2023-02-15T09:26:26;21.80;;;14.83;;
2998;SDS011;1509;51.964;7.628;2023-02-15T09:28:53;19.20;;;14.97;;
2998;SDS011;1509;51.964;7.628;2023-02-15T09:31:21;20.00;;;15.13;;
2998;SDS011;1509;51.964;7.628;2023-02-15T09:33:49;19.30;;;14.60;;
2998;SDS011;1509;51.964;7.628;2023-02-15T09:38:54;23.07;;;17.37;;
2998;SDS011;1509;51.964;7.628;2023-02-15T09:53:07;20.87;;;16.47;;
2998;SDS011;1509;51.964;7.628;2023-02-15T10:04:12;20.67;;;16.07;;
2998;SDS011;1509;51.964;7.628;2023-02-15T10:06:55;21.27;;;16.40;;
2998;SDS011;1509;51.964;7.628;2023-02-15T10:09:42;21.27;;;15.73;;
2998;SDS011;1509;51.964;7.628;2023-02-15T10:15:21;23.50;;;15.90;;
2998;SDS011;1509;51.964;7.628;2023-02-15T10:18:34;23.53;;;16.67;;
2998;SDS011;1509;51.964;7.628;2023-02-15T10:23:41;21.93;;;17.40;;
2998;SDS011;1509;51.964;7.628;2023-02-15T10:28:51;22.60;;;16.20;;
2998;SDS011;1509;51.964;7.628;2023-02-15T10:42:44;24.10;;;16.50;;
2998;SDS011;1509;51.964;7.628;2023-02-15T10:48:31;27.07;;;18.17;;
2998;SDS011;1509;51.964;7.628;2023-02-15T10:51:15;27.30;;;17.80;;
2998;SDS011;1509;51.964;7.628;2023-02-15T10:54:10;24.80;;;18.17;;
2998;SDS011;1509;51.964;7.628;2023-02-15T10:56:52;22.70;;;17.80;;
2998;SDS011;1509;51.964;7.628;2023-02-15T11:02:23;25.33;;;17.50;;
2998;SDS011;1509;51.964;7.628;2023-02-15T11:07:50;23.97;;;17.10;;
2998;SDS011;1509;51.964;7.628;2023-02-15T11:10:26;30.07;;;19.40;;
2998;SDS011;1509;51.964;7.628;2023-02-15T11:13:14;26.23;;;18.43;;
2998;SDS011;1509;51.964;7.628;2023-02-15T11:18:14;26.00;;;18.10;;
2998;SDS011;1509;51.964;7.628;2023-02-15T11:23:28;28.17;;;18.67;;
2998;SDS011;1509;51.964;7.628;2023-02-15T11:25:58;25.20;;;18.43;;
2998;SDS011;1509;51.964;7.628;2023-02-15T11:30:57;28.10;;;18.10;;
2998;SDS011;1509;51.964;7.628;2023-02-15T11:33:29;24.40;;;17.43;;
2998;SDS011;1509;51.964;7.628;2023-02-15T11:36:03;25.57;;;17.17;;
2998;SDS011;1509;51.964;7.628;2023-02-15T11:38:37;23.97;;;17.67;;
2998;SDS011;1509;51.964;7.628;2023-02-15T11:41:11;28.83;;;19.13;;
2998;SDS011;1509;51.964;7.628;2023-02-15T11:46:28;22.70;;;16.70;;
2998;SDS011;1509;51.964;7.628;2023-02-15T11:48:53;24.10;;;17.07;;
2998;SDS011;1509;51.964;7.628;2023-02-15T11:51:20;21.77;;;17.90;;
2998;SDS011;1509;51.964;7.628;2023-02-15T11:53:47;22.70;;;17.23;;
2998;SDS011;1509;51.964;7.628;2023-02-15T11:56:18;25.70;;;18.10;;
2998;SDS011;1509;51.964;7.628;2023-02-15T12:04:24;26.30;;;16.53;;
2998;SDS011;1509;51.964;7.628;2023-02-15T12:10:05;24.47;;;16.50;;
2998;SDS011;1509;51.964;7.628;2023-02-15T12:12:46;23.37;;;17.63;;
2998;SDS011;1509;51.964;7.628;2023-02-15T12:15:12;21.83;;;16.47;;
2998;SDS011;1509;51.964;7.628;2023-02-15T12:17:39;25.70;;;18.00;;
2998;SDS011;1509;51.964;7.628;2023-02-15T12:25:41;25.67;;;17.90;;
2998;SDS011;1509;51.964;7.628;2023-02-15T12:31:02;25.93;;;18.30;;
2998;SDS011;1509;51.964;7.628;2023-02-15T12:33:35;25.43;;;16.63;;
2998;SDS011;1509;51.964;7.628;2023-02-15T12:36:24;25.67;;;17.77;;
2998;SDS011;1509;51.964;7.628;2023-02-15T12:39:14;25.93;;;18.10;;
2998;SDS011;1509;51.964;7.628;2023-02-15T12:41:45;24.90;;;16.80;;
2998;SDS011;1509;51.964;7.628;2023-02-15T12:44:23;24.07;;;16.63;;
2998;SDS011;1509;51.964;7.628;2023-02-15T12:49:43;22.90;;;17.23;;
2998;SDS011;1509;51.964;7.628;2023-02-15T12:54:45;24.83;;;17.00;;
2998;SDS011;1509;51.964;7.628;2023-02-15T12:57:25;25.53;;;17.47;;
2998;SDS011;1509;51.964;7.628;2023-02-15T13:00:04;23.93;;;16.27;;
2998;SDS011;1509;51.964;7.628;2023-02-15T13:02:49;26.40;;;16.40;;
2998;SDS011;1509;51.964;7.628;2023-02-15T13:05:29;22.97;;;15.47;;
2998;SDS011;1509;51.964;7.628;2023-02-15T13:07:56;26.60;;;17.43;;
2998;SDS011;1509;51.964;7.628;2023-02-15T13:10:26;24.30;;;16.70;;
2998;SDS011;1509;51.964;7.628;2023-02-15T13:12:55;22.20;;;16.13;;
2998;SDS011;1509;51.964;7.628;2023-02-15T13:15:40;25.87;;;18.10;;
2998;SDS011;1509;51.964;7.628;2023-02-15T13:18:11;22.97;;;16.93;;
2998;SDS011;1509;51.964;7.628;2023-02-15T13:20:42;28.77;;;18.03;;
2998;SDS011;1509;51.964;7.628;2023-02-15T13:23:20;30.80;;;17.13;;
2998;SDS011;1509;51.964;7.628;2023-02-15T13:25:58;24.20;;;17.47;;
2998;SDS011;1509;51.964;7.628;2023-02-15T13:28:46;23.40;;;16.97;;
2998;SDS011;1509;51.964;7.628;2023-02-15T13:31:19;25.50;;;15.80;;
2998;SDS011;1509;51.964;7.628;2023-02-15T13:37:20;25.53;;;17.67;;
2998;SDS011;1509;51.964;7.628;2023-02-15T13:42:40;23.60;;;17.70;;
2998;SDS011;1509;51.964;7.628;2023-02-15T13:45:25;24.40;;;17.00;;
2998;SDS011;1509;51.964;7.628;2023-02-15T13:48:10;26.10;;;18.40;;
2998;SDS011;1509;51.964;7.628;2023-02-15T13:59:06;26.13;;;16.30;;
2998;SDS011;1509;51.964;7.628;2023-02-15T14:01:45;29.57;;;17.73;;
2998;SDS011;1509;51.964;7.628;2023-02-15T14:04:17;28.57;;;18.03;;
2998;SDS011;1509;51.964;7.628;2023-02-15T14:15:04;25.03;;;17.27;;
2998;SDS011;1509;51.964;7.628;2023-02-15T14:17:55;27.13;;;17.37;;
2998;SDS011;1509;51.964;7.628;2023-02-15T14:23:46;25.60;;;18.07;;
2998;SDS011;1509;51.964;7.628;2023-02-15T14:26:32;27.73;;;17.97;;
2998;SDS011;1509;51.964;7.628;2023-02-15T14:29:14;25.53;;;16.50;;
2998;SDS011;1509;51.964;7.628;2023-02-15T14:31:48;30.10;;;18.43;;
2998;SDS011;1509;51.964;7.628;2023-02-15T14:34:22;28.25;;;18.83;;
2998;SDS011;1509;51.964;7.628;2023-02-15T14:36:52;23.47;;;16.93;;
2998;SDS011;1509;51.964;7.628;2023-02-15T14:42:21;28.77;;;16.77;;
2998;SDS011;1509;51.964;7.628;2023-02-15T14:45:12;32.20;;;17.67;;
2998;SDS011;1509;51.964;7.628;2023-02-15T14:47:45;28.47;;;16.47;;
2998;SDS011;1509;51.964;7.628;2023-02-15T14:55:42;28.57;;;16.63;;
2998;SDS011;1509;51.964;7.628;2023-02-15T14:58:11;27.17;;;15.97;;
2998;SDS011;1509;51.964;7.628;2023-02-15T15:00:38;31.50;;;17.80;;
2998;SDS011;1509;51.964;7.628;2023-02-15T15:03:21;24.37;;;16.57;;
2998;SDS011;1509;51.964;7.628;2023-02-15T15:05:51;28.07;;;18.10;;
2998;SDS011;1509;51.964;7.628;2023-02-15T15:08:26;29.30;;;17.67;;
2998;SDS011;1509;51.964;7.628;2023-02-15T15:10:58;25.60;;;17.40;;
2998;SDS011;1509;51.964;7.628;2023-02-15T15:13:56;26.10;;;15.60;;
2998;SDS011;1509;51.964;7.628;2023-02-15T15:19:01;26.10;;;16.00;;
2998;SDS011;1509;51.964;7.628;2023-02-15T15:30:17;27.97;;;16.67;;
2998;SDS011;1509;51.964;7.628;2023-02-15T15:49:30;28.53;;;17.60;;
2998;SDS011;1509;51.964;7.628;2023-02-15T15:52:02;26.53;;;17.10;;
2998;SDS011;1509;51.964;7.628;2023-02-15T15:54:38;32.07;;;18.53;;
2998;SDS011;1509;51.964;7.628;2023-02-15T15:57:06;28.23;;;18.67;;
2998;SDS011;1509;51.964;7.628;2023-02-15T15:59:58;26.13;;;15.93;;
2998;SDS011;1509;51.964;7.628;2023-02-15T16:02:24;26.60;;;15.93;;
2998;SDS011;1509;51.964;7.628;2023-02-15T16:04:51;24.90;;;16.50;;
2998;SDS011;1509;51.964;7.628;2023-02-15T16:12:19;28.87;;;17.00;;
2998;SDS011;1509;51.964;7.628;2023-02-15T16:14:45;34.07;;;15.70;;
2998;SDS011;1509;51.964;7.628;2023-02-15T16:17:20;24.60;;;16.20;;
2998;SDS011;1509;51.964;7.628;2023-02-15T16:19:53;26.30;;;15.57;;
2998;SDS011;1509;51.964;7.628;2023-02-15T16:22:39;21.73;;;15.40;;
2998;SDS011;1509;51.964;7.628;2023-02-15T16:27:37;22.50;;;15.03;;
2998;SDS011;1509;51.964;7.628;2023-02-15T16:32:51;24.77;;;14.90;;
2998;SDS011;1509;51.964;7.628;2023-02-15T16:35:19;26.93;;;15.37;;
2998;SDS011;1509;51.964;7.628;2023-02-15T16:37:47;28.03;;;17.50;;
2998;SDS011;1509;51.964;7.628;2023-02-15T16:40:35;24.90;;;15.33;;
2998;SDS011;1509;51.964;7.628;2023-02-15T16:43:06;26.00;;;15.10;;
2998;SDS011;1509;51.964;7.628;2023-02-15T16:45:37;25.33;;;14.70;;
2998;SDS011;1509;51.964;7.628;2023-02-15T16:48:05;30.93;;;17.07;;
2998;SDS011;1509;51.964;7.628;2023-02-15T16:50:36;29.40;;;16.70;;
2998;SDS011;1509;51.964;7.628;2023-02-15T16:53:04;22.17;;;15.07;;
2998;SDS011;1509;51.964;7.628;2023-02-15T16:55:35;24.73;;;14.33;;
2998;SDS011;1509;51.964;7.628;2023-02-15T16:58:06;28.70;;;14.23;;
2998;SDS011;1509;51.964;7.628;2023-02-15T17:00:38;22.77;;;15.33;;
2998;SDS011;1509;51.964;7.628;2023-02-15T17:05:46;30.40;;;16.70;;
2998;SDS011;1509;51.964;7.628;2023-02-15T17:08:18;25.43;;;15.10;;
2998;SDS011;1509;51.964;7.628;2023-02-15T17:13:37;30.47;;;16.67;;
2998;SDS011;1509;51.964;7.628;2023-02-15T17:18:29;25.30;;;17.53;;
2998;SDS011;1509;51.964;7.628;2023-02-15T17:20:59;21.57;;;14.57;;
2998;SDS011;1509;51.964;7.628;2023-02-15T17:23:34;29.03;;;15.63;;
2998;SDS011;1509;51.964;7.628;2023-02-15T17:26:21;28.03;;;16.97;;
2998;SDS011;1509;51.964;7.628;2023-02-15T17:28:50;25.60;;;15.47;;
2998;SDS011;1509;51.964;7.628;2023-02-15T17:31:24;31.37;;;16.63;;
2998;SDS011;1509;51.964;7.628;2023-02-15T17:33:54;27.80;;;18.50;;
2998;SDS011;1509;51.964;7.628;2023-02-15T17:36:23;33.50;;;16.27;;
2998;SDS011;1509;51.964;7.628;2023-02-15T17:41:44;23.90;;;16.10;;
2998;SDS011;1509;51.964;7.628;2023-02-15T17:44:12;29.23;;;15.90;;
2998;SDS011;1509;51.964;7.628;2023-02-15T17:46:40;24.07;;;15.00;;
2998;SDS011;1509;51.964;7.628;2023-02-15T17:49:06;29.37;;;16.83;;
2998;SDS011;1509;51.964;7.628;2023-02-15T17:51:39;28.93;;;16.23;;
2998;SDS011;1509;51.964;7.628;2023-02-15T17:54:05;27.63;;;14.30;;
2998;SDS011;1509;51.964;7.628;2023-02-15T17:56:51;27.20;;;16.10;;
2998;SDS011;1509;51.964;7.628;2023-02-15T17:59:17;28.00;;;13.70;;
2998;SDS011;1509;51.964;7.628;2023-02-15T18:01:46;29.47;;;16.07;;
2998;SDS011;1509;51.964;7.628;2023-02-15T18:04:32;30.07;;;15.50;;
2998;SDS011;1509;51.964;7.628;2023-02-15T18:07:17;25.37;;;14.03;;
2998;SDS011;1509;51.964;7.628;2023-02-15T18:10:20;27.23;;;14.20;;
2998;SDS011;1509;51.964;7.628;2023-02-15T18:13:04;26.67;;;15.30;;
2998;SDS011;1509;51.964;7.628;2023-02-15T18:15:30;28.30;;;15.60;;
2998;SDS011;1509;51.964;7.628;2023-02-15T18:17:56;25.47;;;14.50;;
2998;SDS011;1509;51.964;7.628;2023-02-15T18:20:23;24.63;;;13.30;;
2998;SDS011;1509;51.964;7.628;2023-02-15T18:22:52;24.70;;;15.77;;
2998;SDS011;1509;51.964;7.628;2023-02-15T18:25:20;26.77;;;14.97;;
2998;SDS011;1509;51.964;7.628;2023-02-15T18:27:48;25.70;;;15.47;;
2998;SDS011;1509;51.964;7.628;2023-02-15T18:30:17;28.77;;;14.77;;
2998;SDS011;1509;51.964;7.628;2023-02-15T18:32:45;24.43;;;14.40;;